createdAt,value
2022-07-28T11:35:20.553Z,102108.88
2022-07-28T11:38:13.488Z,102100.91
2022-07-28T11:40:44.678Z,102110.56
2022-07-28T11:43:36.236Z,102117.63
2022-07-28T11:46:37.382Z,102115.88
2022-07-28T11:49:21.102Z,102111.50
2022-07-28T11:52:20.938Z,102114.16
2022-07-28T11:54:56.185Z,102119.44
2022-07-28T11:57:28.539Z,102121.19
2022-07-28T12:00:01.158Z,102119.44
2022-07-28T12:02:31.571Z,102109.75
2022-07-28T12:05:02.505Z,102115.88
2022-07-28T12:07:35.566Z,102110.53
2022-07-28T12:10:03.835Z,102111.38
2022-07-28T12:12:33.001Z,102119.22
2022-07-28T12:15:06.648Z,102113.03
2022-07-28T12:17:35.254Z,102109.53
2022-07-28T12:20:05.557Z,102105.09
2022-07-28T12:22:40.929Z,102119.19
2022-07-28T12:25:13.598Z,102115.63
2022-07-28T12:27:44.800Z,102110.31
2022-07-28T12:30:14.756Z,102108.47
2022-07-28T12:32:47.638Z,102107.53
2022-07-28T12:35:15.834Z,102112.81
2022-07-28T12:37:47.972Z,102109.22
2022-07-28T12:40:16.919Z,102110.94
2022-07-28T12:42:45.499Z,102115.31
2022-07-28T12:45:20.031Z,102109.13
2022-07-28T12:47:48.005Z,102111.72
2022-07-28T12:50:16.633Z,102112.56
2022-07-28T12:53:02.137Z,102109.94
2022-07-28T12:55:30.745Z,102100.16
2022-07-28T12:57:58.841Z,102106.28
2022-07-28T13:00:31.196Z,102101.81
2022-07-28T13:02:59.912Z,102109.66
2022-07-28T13:05:32.525Z,102100.75
2022-07-28T13:08:05.680Z,102099.81
2022-07-28T13:10:33.966Z,102098.88
2022-07-28T13:13:03.946Z,102098.81
2022-07-28T13:15:31.929Z,102096.09
2022-07-28T13:17:59.924Z,102094.25
2022-07-28T13:20:28.019Z,102096.84
2022-07-28T13:22:57.408Z,102098.56
2022-07-28T13:25:26.868Z,102095.94
2022-07-28T13:27:55.296Z,102097.66
2022-07-28T13:30:24.405Z,102094.97
2022-07-28T13:32:54.870Z,102094.06
2022-07-28T13:35:22.995Z,102087.84
2022-07-28T13:37:51.132Z,102101.94
2022-07-28T13:40:19.094Z,102086.84
2022-07-28T13:42:52.772Z,102091.19
2022-07-28T13:45:22.163Z,102089.38
2022-07-28T13:47:51.887Z,102088.41
2022-07-28T13:50:20.527Z,102091.84
2022-07-28T13:52:48.684Z,102090.09
2022-07-28T13:55:19.584Z,102089.13
2022-07-28T13:57:49.913Z,102084.63
2022-07-28T14:00:19.436Z,102086.31
2022-07-28T14:02:50.925Z,102087.06
2022-07-28T14:05:19.090Z,102077.19
2022-07-28T14:07:48.785Z,102085.88
2022-07-28T14:10:17.287Z,102089.25
2022-07-28T14:12:46.268Z,102076.69
2022-07-28T14:15:16.041Z,102073.09
2022-07-28T14:17:47.063Z,102072.25
2022-07-28T14:20:15.225Z,102075.66
2022-07-28T14:22:43.383Z,102069.22
2022-07-28T14:25:11.769Z,102060.56
2022-07-28T14:27:47.695Z,102065.97
2022-07-28T14:30:17.132Z,102058.16
2022-07-28T14:32:45.071Z,102056.81
2022-07-28T14:35:12.974Z,102053.34
2022-07-28T14:38:04.853Z,102065.53
2022-07-28T14:40:29.077Z,102062.91
2022-07-28T14:42:57.168Z,102066.31
2022-07-28T14:45:26.472Z,102063.19
2022-07-28T14:47:55.416Z,102060.50
2022-07-28T14:50:23.481Z,102066.44
2022-07-28T14:52:51.640Z,102063.22
2022-07-28T14:55:19.618Z,102059.47
2022-07-28T14:57:54.421Z,102060.69
2022-07-28T15:00:23.556Z,102053.94
2022-07-28T15:02:53.686Z,102051.72
2022-07-28T15:05:21.821Z,102061.94
2022-07-28T15:07:51.970Z,102059.31
2022-07-28T15:10:20.385Z,102053.59
2022-07-28T15:12:48.348Z,102055.50
2022-07-28T15:15:16.698Z,102050.81
2022-07-28T15:17:47.739Z,102050.66
2022-07-28T15:20:18.180Z,102045.84
2022-07-28T15:22:46.214Z,102047.66
2022-07-28T15:25:17.385Z,102048.25
2022-07-28T15:27:45.890Z,102044.72
2022-07-28T15:30:14.287Z,102050.34
2022-07-28T15:32:54.578Z,102051.84
2022-07-28T15:35:26.649Z,102046.06
2022-07-28T15:37:54.608Z,102041.09
2022-07-28T15:40:22.953Z,102046.72
2022-07-28T15:42:51.311Z,102041.72
2022-07-28T15:45:19.283Z,102041.00
2022-07-28T15:47:48.103Z,102039.34
2022-07-28T15:50:16.055Z,102036.88
2022-07-28T15:52:45.447Z,102033.38
2022-07-28T15:55:13.486Z,102043.19
2022-07-28T15:57:41.446Z,102038.88
2022-07-28T16:00:10.126Z,102028.41
2022-07-28T16:02:38.209Z,102032.03
2022-07-28T16:05:06.821Z,102026.81
2022-07-28T16:07:35.754Z,102023.44
2022-07-28T16:10:05.661Z,102018.28
2022-07-28T16:12:33.899Z,102022.78
2022-07-28T16:15:01.890Z,102022.00
2022-07-28T16:17:29.784Z,102014.97
2022-07-28T16:20:02.092Z,102016.81
2022-07-28T16:22:30.712Z,102018.69
2022-07-28T16:24:58.712Z,102017.84
2022-07-28T16:27:28.247Z,102016.97
2022-07-28T16:29:56.184Z,102020.50
2022-07-28T16:32:24.672Z,102016.06
2022-07-28T16:34:53.907Z,102016.00
2022-07-28T16:37:21.871Z,102017.78
2022-07-28T16:39:49.853Z,102020.53
2022-07-28T16:42:18.043Z,102016.13
2022-07-28T16:44:50.682Z,102022.34
2022-07-28T16:47:18.602Z,102016.13
2022-07-28T16:49:46.580Z,102021.50
2022-07-28T16:52:14.895Z,102025.03
2022-07-28T16:54:42.958Z,102024.19
2022-07-28T16:57:10.943Z,102023.38
2022-07-28T16:59:47.947Z,102020.81
2022-07-28T17:02:18.585Z,102020.91
2022-07-28T17:04:46.870Z,102023.59
2022-07-28T17:07:14.834Z,102028.06
2022-07-28T17:09:42.959Z,102027.22
2022-07-28T17:12:11.069Z,102029.03
2022-07-28T17:14:39.030Z,102026.38
2022-07-28T17:17:06.993Z,102029.03
2022-07-28T17:19:38.143Z,102029.06
2022-07-28T17:22:08.864Z,102026.44
2022-07-28T17:24:36.813Z,102027.09
2022-07-28T17:30:01.541Z,102033.66
2022-07-28T17:32:29.516Z,102022.00
2022-07-28T17:34:58.793Z,102016.63
2022-07-28T17:37:27.287Z,102019.25
2022-07-28T17:39:55.226Z,102014.81
2022-07-28T17:42:23.204Z,102016.56
2022-07-28T17:44:53.689Z,102024.53
2022-07-28T17:47:24.057Z,102028.00
2022-07-28T17:50:09.332Z,102027.22
2022-07-28T17:52:37.416Z,102026.28
2022-07-28T17:55:24.113Z,102026.13
2022-07-28T17:57:52.313Z,102022.56
2022-07-28T18:00:22.027Z,102024.22
2022-07-28T18:02:50.686Z,102023.44
2022-07-28T18:05:20.175Z,102025.28
2022-07-28T18:07:53.705Z,102020.91
2022-07-28T18:10:25.064Z,102020.91
2022-07-28T18:12:55.092Z,102016.50
2022-07-28T18:15:22.982Z,102011.28
2022-07-28T18:17:54.816Z,102014.00
2022-07-28T18:20:25.389Z,102013.25
2022-07-28T18:22:53.479Z,102020.34
2022-07-28T18:25:21.465Z,102012.47
2022-07-28T18:27:49.411Z,102015.25
2022-07-28T18:30:18.096Z,102023.28
2022-07-28T18:32:46.152Z,102025.16
2022-07-28T18:35:14.119Z,102021.69
2022-07-28T18:37:45.977Z,102017.41
2022-07-28T18:40:14.370Z,102016.56
2022-07-28T18:42:42.346Z,102015.72
2022-07-28T18:45:11.267Z,102014.91
2022-07-28T18:47:46.552Z,102012.31
2022-07-28T18:50:30.576Z,102019.47
2022-07-28T18:53:01.353Z,102011.63
2022-07-28T18:55:29.321Z,102014.28
2022-07-28T18:57:57.300Z,102014.25
2022-07-28T19:00:25.411Z,102017.47
2022-07-28T19:02:53.506Z,102019.97
2022-07-28T19:05:21.574Z,102016.53
2022-07-28T19:07:50.115Z,102015.00
2022-07-28T19:10:19.581Z,102017.94
2022-07-28T19:12:48.193Z,102023.53
2022-07-28T19:15:16.212Z,102016.78
2022-07-28T19:17:44.242Z,102027.53
2022-07-28T19:20:12.718Z,102019.78
2022-07-28T19:22:40.731Z,102019.19
2022-07-28T19:25:09.312Z,102025.53
2022-07-28T19:27:38.648Z,102020.47
2022-07-28T19:30:07.396Z,102019.69
2022-07-28T19:32:35.385Z,102019.03
2022-07-28T19:35:03.876Z,102020.06
2022-07-28T19:37:31.874Z,102021.16
2022-07-28T19:39:59.821Z,102022.19
2022-07-28T19:42:29.613Z,102020.53
2022-07-28T19:44:58.905Z,102021.59
2022-07-28T19:47:26.886Z,102026.09
2022-07-28T19:49:54.799Z,102027.06
2022-07-28T19:52:24.026Z,102027.22
2022-07-28T19:54:52.467Z,102026.41
2022-07-28T19:57:23.313Z,102032.63
2022-07-28T19:59:51.002Z,102026.59
2022-07-28T20:02:20.391Z,102031.97
2022-07-28T20:04:48.466Z,102034.69
2022-07-28T20:07:16.542Z,102026.84
2022-07-28T20:09:44.466Z,102030.41
2022-07-28T20:12:12.462Z,102034.00
2022-07-28T20:14:40.409Z,102034.97
2022-07-28T20:17:08.411Z,102026.19
2022-07-28T20:19:37.815Z,102029.94
2022-07-28T20:22:05.772Z,102028.16
2022-07-28T20:24:33.683Z,102030.88
2022-07-28T20:27:03.742Z,102034.47
2022-07-28T20:29:31.636Z,102030.13
2022-07-28T20:31:59.508Z,102038.06
2022-07-28T20:34:27.842Z,102038.06
2022-07-28T20:36:57.131Z,102034.56
2022-07-28T20:39:44.014Z,102036.38
2022-07-28T20:42:14.307Z,102039.94
2022-07-28T20:44:43.275Z,102036.44
2022-07-28T20:47:11.307Z,102036.44
2022-07-28T20:49:43.310Z,102037.34
2022-07-28T20:52:12.692Z,102041.75
2022-07-28T20:54:49.464Z,102038.31
2022-07-28T20:57:21.673Z,102039.22
2022-07-28T20:59:51.295Z,102044.53
2022-07-28T21:02:19.287Z,102043.66
2022-07-28T21:04:50.154Z,102052.53
2022-07-28T21:07:59.534Z,102050.81
2022-07-28T21:10:08.178Z,102055.28
2022-07-28T21:12:37.114Z,102062.38
2022-07-28T21:15:04.988Z,102058.03
2022-07-28T21:17:32.703Z,102060.72
2022-07-28T21:20:00.368Z,102055.50
2022-07-28T21:22:29.683Z,102057.28
2022-07-28T21:24:57.644Z,102056.44
2022-07-28T21:27:25.290Z,102057.38
2022-07-28T21:32:21.096Z,102064.53
2022-07-28T21:34:48.785Z,102069.81
2022-07-28T21:37:16.403Z,102065.47
2022-07-28T21:39:45.667Z,102067.28
2022-07-28T21:42:13.341Z,102071.69
2022-07-28T21:44:40.994Z,102064.72
2022-07-28T21:47:09.066Z,102067.38
2022-07-28T21:49:36.713Z,102075.34
2022-07-28T21:52:04.571Z,102075.38
2022-07-28T21:54:32.285Z,102074.50
2022-07-28T21:57:01.323Z,102073.69
2022-07-28T21:59:28.980Z,102075.44
2022-07-28T22:01:56.702Z,102075.47
2022-07-28T22:04:24.483Z,102080.81
2022-07-28T22:06:53.530Z,102072.88
2022-07-28T22:09:21.190Z,102077.31
2022-07-28T22:11:48.820Z,102076.47
2022-07-28T22:14:18.307Z,102078.25
2022-07-28T22:16:46.351Z,102073.88
2022-07-28T22:19:14.164Z,102080.94
2022-07-28T22:21:41.803Z,102082.75
2022-07-28T22:24:12.800Z,102081.00
2022-07-28T22:26:40.697Z,102091.56
2022-07-28T22:29:08.600Z,102088.94
2022-07-28T22:31:37.993Z,102088.94
2022-07-28T22:34:05.922Z,102088.97
2022-07-28T22:36:33.856Z,102089.88
2022-07-28T22:39:01.789Z,102086.41
2022-07-28T22:41:29.938Z,102083.78
2022-07-28T22:43:57.852Z,102083.78
2022-07-28T22:46:25.886Z,102093.44
2022-07-28T22:48:55.422Z,102084.63
2022-07-28T22:51:23.410Z,102083.78
2022-07-28T22:53:51.337Z,102087.28
2022-07-28T22:56:19.368Z,102083.81
2022-07-28T22:58:47.353Z,102087.34
2022-07-28T23:01:15.789Z,102092.63
2022-07-28T23:03:46.215Z,102094.34
2022-07-28T23:06:16.661Z,102087.38
2022-07-28T23:08:44.673Z,102094.38
2022-07-28T23:11:12.621Z,102097.09
2022-07-28T23:13:40.919Z,102095.38
2022-07-28T23:16:09.143Z,102097.09
2022-07-28T23:18:39.332Z,102097.94
2022-07-28T23:21:07.273Z,102095.38
2022-07-28T23:23:36.627Z,102097.94
2022-07-28T23:26:04.540Z,102094.50
2022-07-28T23:28:32.500Z,102097.13
2022-07-28T23:31:00.423Z,102100.69
2022-07-28T23:33:56.306Z,102094.59
2022-07-28T23:36:25.957Z,102094.59
2022-07-28T23:38:56.535Z,102092.81
2022-07-28T23:41:24.453Z,102084.94
2022-07-28T23:43:52.387Z,102095.53
2022-07-28T23:46:20.367Z,102100.81
2022-07-28T23:48:49.386Z,102086.78
2022-07-28T23:51:17.360Z,102090.31
2022-07-28T23:53:45.311Z,102099.97
2022-07-28T23:56:14.994Z,102097.38
2022-07-28T23:58:42.973Z,102092.13
